Time;durP1;ratioP1;P1;durP2;ratioP2;P2;SDS_P1;SDS_P2;PMS_P1;PMS_P2;Temp;Humidity;BMP_temperature;BMP_pressure;BME280_temperature;BME280_humidity;BME280_pressure;Samples;Min_cycle;Max_cycle;Signal;HPM_P1;HPM_P2
2023/04/21 00:02:14;;;;;;;13.20;10.87;;;10.20;68.20;;;;;;5073099;28;20471;-76
2023/04/21 00:04:44;;;;;;;13.00;11.60;;;10.20;68.20;;;;;;5072046;28;20460;-75
2023/04/21 00:07:13;;;;;;;11.77;10.50;;;10.20;68.10;;;;;;5073701;28;20920;-76
2023/04/21 00:09:40;;;;;;;12.00;10.70;;;10.20;68.30;;;;;;5073024;28;20954;-76
2023/04/21 00:12:08;;;;;;;12.17;10.87;;;10.10;68.30;;;;;;5073297;28;20808;-75
2023/04/21 00:14:35;;;;;;;12.03;10.40;;;10.10;68.50;;;;;;5072678;28;20483;-76
2023/04/21 00:17:02;;;;;;;13.27;10.57;;;10.10;68.50;;;;;;5072919;28;20554;-76
2023/04/21 00:19:29;;;;;;;12.60;11.27;;;10.10;68.30;;;;;;5073346;28;20460;-76
2023/04/21 00:21:57;;;;;;;12.43;11.07;;;10.10;68.40;;;;;;5073068;28;20801;-76
2023/04/21 00:24:25;;;;;;;12.63;11.30;;;10.00;68.50;;;;;;5073046;28;20464;-76
2023/04/21 00:26:52;;;;;;;13.57;11.83;;;10.00;68.60;;;;;;5072358;28;20502;-76
2023/04/21 00:29:20;;;;;;;13.17;10.83;;;10.00;68.70;;;;;;5073328;28;20829;-75
2023/04/21 00:31:47;;;;;;;13.43;11.77;;;10.00;68.90;;;;;;5073250;28;20587;-75
2023/04/21 00:34:14;;;;;;;14.53;12.30;;;10.00;69.00;;;;;;5072771;28;20502;-76
2023/04/21 00:36:44;;;;;;;14.27;12.77;;;9.90;70.20;;;;;;5072906;28;20542;-76
2023/04/21 00:39:11;;;;;;;14.53;12.93;;;9.90;70.30;;;;;;5072770;28;20491;-76
2023/04/21 00:41:39;;;;;;;15.20;13.60;;;9.90;70.40;;;;;;5072944;28;20453;-76
2023/04/21 00:44:07;;;;;;;15.73;13.63;;;9.90;70.60;;;;;;5073050;28;20447;-74
2023/04/21 00:46:37;;;;;;;18.53;14.97;;;9.90;70.80;;;;;;5072708;28;20483;-76
2023/04/21 00:49:06;;;;;;;18.77;15.80;;;9.90;70.80;;;;;;5073281;28;20887;-76
2023/04/21 00:51:35;;;;;;;19.27;15.50;;;9.90;71.20;;;;;;5073033;28;20447;-74
2023/04/21 00:54:04;;;;;;;18.97;15.83;;;9.90;71.50;;;;;;5072753;28;20932;-76
2023/04/21 00:56:32;;;;;;;17.57;15.60;;;9.90;71.40;;;;;;5073148;28;20477;-76
2023/04/21 00:59:00;;;;;;;18.83;16.77;;;9.90;71.50;;;;;;5074420;28;20979;-75
2023/04/21 01:01:28;;;;;;;18.67;16.20;;;9.90;71.40;;;;;;5076902;28;20842;-75
2023/04/21 01:03:58;;;;;;;18.90;16.37;;;9.90;71.40;;;;;;5076852;28;20534;-76
2023/04/21 01:06:25;;;;;;;18.60;16.60;;;9.90;71.40;;;;;;5076522;28;20458;-76
2023/04/21 01:08:53;;;;;;;19.67;16.47;;;9.90;71.50;;;;;;5063620;28;20483;-75
2023/04/21 01:11:20;;;;;;;18.60;16.23;;;9.90;71.50;;;;;;5056344;28;20480;-73
2023/04/21 01:13:47;;;;;;;20.60;17.23;;;9.90;71.50;;;;;;5056432;28;20492;-75
2023/04/21 01:16:18;;;;;;;19.17;17.17;;;9.90;71.50;;;;;;5056668;28;21010;-75
2023/04/21 01:18:45;;;;;;;19.13;16.90;;;9.90;71.40;;;;;;5056630;28;20782;-75
2023/04/21 01:21:15;;;;;;;19.40;17.40;;;9.90;71.10;;;;;;5056601;28;20454;-75
2023/04/21 01:23:43;;;;;;;19.03;16.90;;;9.90;71.30;;;;;;5056298;28;20472;-76
2023/04/21 01:26:10;;;;;;;18.50;16.47;;;9.90;71.40;;;;;;5056641;28;20447;-76
2023/04/21 01:28:37;;;;;;;19.83;17.50;;;9.90;71.50;;;;;;5056038;28;20444;-75
2023/04/21 01:31:05;;;;;;;19.60;17.10;;;9.90;71.50;;;;;;5037747;28;20509;-74
2023/04/21 01:33:32;;;;;;;20.73;17.77;;;9.90;71.60;;;;;;5056330;28;20495;-76
2023/04/21 01:35:59;;;;;;;18.60;16.47;;;9.90;71.60;;;;;;5055882;28;20471;-76
2023/04/21 01:38:26;;;;;;;19.27;16.90;;;9.90;71.70;;;;;;5056463;28;20455;-74
2023/04/21 01:40:55;;;;;;;17.33;15.13;;;9.90;71.40;;;;;;5054867;28;20812;-76
2023/04/21 01:43:24;;;;;;;19.40;16.97;;;9.90;71.30;;;;;;5056143;28;20807;-76
2023/04/21 01:45:52;;;;;;;18.33;15.83;;;9.80;71.10;;;;;;5056386;28;20531;-75
2023/04/21 01:48:18;;;;;;;18.50;16.50;;;9.80;71.10;;;;;;5055906;28;20490;-76
2023/04/21 01:50:45;;;;;;;19.43;17.03;;;9.80;71.10;;;;;;5055742;28;20552;-75
2023/04/21 01:53:12;;;;;;;20.00;16.73;;;9.70;71.00;;;;;;5055412;28;20491;-76
2023/04/21 01:55:39;;;;;;;19.47;16.50;;;9.70;71.10;;;;;;5055468;28;20450;-76
2023/04/21 01:58:08;;;;;;;20.40;16.77;;;9.70;70.90;;;;;;5043053;28;20467;-75
2023/04/21 02:00:38;;;;;;;18.60;15.87;;;9.70;70.90;;;;;;5073263;28;20590;-75
2023/04/21 02:03:05;;;;;;;19.47;16.40;;;9.60;70.70;;;;;;5075780;28;20443;-75
2023/04/21 02:05:32;;;;;;;19.03;15.40;;;9.60;71.40;;;;;;5065325;28;20598;-75
2023/04/21 02:07:58;;;;;;;19.03;16.00;;;9.60;70.50;;;;;;5056090;28;20449;-75
2023/04/21 02:10:25;;;;;;;20.30;16.17;;;9.60;70.50;;;;;;5055260;28;20540;-75
2023/04/21 02:12:52;;;;;;;18.67;16.00;;;9.60;70.50;;;;;;5055450;28;20518;-75
2023/04/21 02:15:20;;;;;;;18.20;15.73;;;9.50;70.40;;;;;;5055709;28;20459;-75
2023/04/21 02:17:48;;;;;;;17.47;15.07;;;9.50;70.20;;;;;;5055515;28;20444;-74
2023/04/21 02:20:15;;;;;;;18.23;16.23;;;9.50;70.10;;;;;;5064404;28;20484;-75
2023/04/21 02:22:42;;;;;;;19.40;16.40;;;9.40;70.00;;;;;;5075421;28;20486;-74
2023/04/21 02:25:09;;;;;;;18.33;15.53;;;9.40;70.10;;;;;;5075112;28;20470;-75
2023/04/21 02:27:36;;;;;;;18.43;15.40;;;9.40;70.10;;;;;;5075272;28;20458;-75
2023/04/21 02:30:04;;;;;;;19.77;16.17;;;9.40;70.10;;;;;;5075451;28;20478;-74
2023/04/21 02:32:32;;;;;;;16.67;13.77;;;9.30;70.00;;;;;;5074184;28;20564;-75
2023/04/21 02:34:59;;;;;;;16.93;14.87;;;9.30;70.20;;;;;;5074608;28;20543;-75
2023/04/21 02:37:26;;;;;;;17.63;14.70;;;9.30;70.20;;;;;;5073661;28;20978;-75
2023/04/21 02:39:53;;;;;;;17.47;15.30;;;9.20;70.10;;;;;;5073695;28;20513;-75
2023/04/21 02:42:20;;;;;;;16.07;14.37;;;9.20;70.10;;;;;;5074977;28;20935;-75
2023/04/21 02:44:47;;;;;;;17.77;15.17;;;9.20;70.10;;;;;;5075283;28;20854;-76
2023/04/21 02:47:16;;;;;;;18.17;15.37;;;9.20;70.10;;;;;;5074660;28;20448;-75
2023/04/21 02:49:44;;;;;;;17.07;14.53;;;9.20;70.10;;;;;;5075094;28;20509;-75
2023/04/21 02:52:11;;;;;;;15.53;13.80;;;9.20;69.80;;;;;;5061835;28;20879;-75
2023/04/21 02:54:38;;;;;;;16.23;14.33;;;9.20;69.90;;;;;;5054764;28;20463;-75
2023/04/21 02:57:05;;;;;;;17.07;14.73;;;9.10;70.30;;;;;;5054386;28;20681;-75
2023/04/21 02:59:31;;;;;;;17.77;15.33;;;9.10;69.50;;;;;;5053495;28;20472;-75
2023/04/21 03:01:58;;;;;;;18.93;15.30;;;9.10;69.60;;;;;;5054277;28;20484;-74
2023/04/21 03:04:25;;;;;;;18.87;16.03;;;9.10;69.70;;;;;;5054674;28;20436;-75
2023/04/21 03:06:54;;;;;;;18.07;15.07;;;9.10;69.70;;;;;;5054549;28;20538;-75
2023/04/21 03:09:21;;;;;;;17.77;15.87;;;9.00;69.60;;;;;;5054644;28;20461;-76
2023/04/21 03:11:47;;;;;;;18.30;15.53;;;9.00;69.90;;;;;;5054364;28;20455;-73
2023/04/21 03:14:14;;;;;;;17.90;15.63;;;8.90;69.80;;;;;;5054453;28;20864;-75
2023/04/21 03:16:41;;;;;;;17.90;14.87;;;8.90;69.80;;;;;;5054460;28;20470;-75
2023/04/21 03:19:08;;;;;;;19.43;16.00;;;8.90;69.70;;;;;;5054072;28;20902;-75
2023/04/21 03:21:37;;;;;;;18.50;15.03;;;8.90;69.70;;;;;;5053877;28;20939;-75
2023/04/21 03:24:08;;;;;;;17.57;15.20;;;8.90;69.50;;;;;;5054016;28;20891;-75
2023/04/21 03:26:36;;;;;;;16.90;14.97;;;8.90;69.40;;;;;;5054516;28;20498;-75
2023/04/21 03:29:03;;;;;;;18.13;15.23;;;8.80;69.60;;;;;;5053759;28;20452;-75
2023/04/21 03:31:30;;;;;;;19.13;15.20;;;8.80;69.40;;;;;;5053999;28;20449;-75
2023/04/21 03:33:57;;;;;;;19.07;15.53;;;8.80;69.30;;;;;;5053884;28;20868;-75
2023/04/21 03:36:24;;;;;;;18.20;16.03;;;8.80;69.70;;;;;;5053811;28;20808;-75
2023/04/21 03:38:50;;;;;;;19.30;15.47;;;8.80;69.60;;;;;;5053962;28;20456;-75
2023/04/21 03:41:19;;;;;;;17.87;15.57;;;8.70;69.30;;;;;;5035185;28;20468;-75
2023/04/21 03:43:46;;;;;;;20.73;15.80;;;8.70;69.20;;;;;;5053500;28;20535;-75
2023/04/21 03:46:19;;;;;;;18.37;16.13;;;8.60;69.40;;;;;;5053747;28;20555;-75
2023/04/21 03:48:46;;;;;;;22.43;15.37;;;8.70;69.70;;;;;;5054045;28;20483;-75
2023/04/21 03:51:13;;;;;;;18.00;15.33;;;8.60;69.50;;;;;;5053457;28;20476;-75
2023/04/21 03:53:47;;;;;;;18.07;14.57;;;8.60;69.20;;;;;;5053616;28;20484;-76
2023/04/21 03:56:14;;;;;;;15.90;14.10;;;8.60;69.10;;;;;;5054258;28;20838;-75
2023/04/21 03:58:42;;;;;;;18.83;15.00;;;8.60;69.20;;;;;;5053621;28;20471;-73
2023/04/21 04:01:09;;;;;;;18.70;14.57;;;8.60;69.40;;;;;;5053531;28;20852;-75
2023/04/21 04:03:39;;;;;;;17.33;14.57;;;8.60;69.40;;;;;;5059520;28;20471;-75
2023/04/21 04:06:06;;;;;;;17.57;14.67;;;8.60;69.50;;;;;;5073700;28;20462;-75
2023/04/21 04:08:33;;;;;;;16.90;15.13;;;8.50;69.20;;;;;;5054641;28;20524;-75
2023/04/21 04:11:00;;;;;;;20.30;15.53;;;8.50;69.20;;;;;;5073685;28;20452;-75
2023/04/21 04:13:28;;;;;;;17.53;14.80;;;8.50;69.10;;;;;;5073688;28;20491;-75
2023/04/21 04:15:58;;;;;;;18.77;15.70;;;8.50;69.10;;;;;;5073247;28;20436;-75
2023/04/21 04:18:25;;;;;;;16.03;14.17;;;8.40;69.00;;;;;;5073898;28;20488;-76
2023/04/21 04:20:52;;;;;;;17.03;14.10;;;8.50;68.90;;;;;;5073435;28;20453;-74
2023/04/21 04:23:19;;;;;;;19.53;13.10;;;8.40;68.80;;;;;;5073534;28;20443;-75
2023/04/21 04:25:46;;;;;;;17.07;14.33;;;8.40;69.20;;;;;;5072142;28;20462;-76
2023/04/21 04:28:14;;;;;;;18.00;14.73;;;8.30;69.50;;;;;;5073691;28;20542;-76
2023/04/21 04:30:41;;;;;;;18.10;13.90;;;8.40;70.20;;;;;;5073377;28;20479;-76
2023/04/21 04:33:10;;;;;;;17.80;14.83;;;8.40;70.20;;;;;;5075697;28;20486;-76
2023/04/21 04:35:37;;;;;;;17.10;15.03;;;8.30;70.10;;;;;;5076894;28;20884;-74
2023/04/21 04:38:06;;;;;;;18.70;16.57;;;8.40;70.30;;;;;;5077513;28;20459;-76
2023/04/21 04:40:33;;;;;;;17.63;14.50;;;8.40;70.40;;;;;;5077101;28;20463;-75
2023/04/21 04:43:01;;;;;;;16.07;13.90;;;8.40;70.40;;;;;;5077676;28;20423;-74
2023/04/21 04:45:31;;;;;;;16.63;13.67;;;8.40;70.40;;;;;;5076958;28;20457;-75
2023/04/21 04:47:58;;;;;;;18.33;14.77;;;8.40;70.80;;;;;;5074587;28;20825;-74
2023/04/21 04:50:27;;;;;;;16.03;14.20;;;8.40;70.40;;;;;;5057526;28;20688;-76
2023/04/21 04:52:55;;;;;;;17.67;14.03;;;8.50;70.40;;;;;;5057125;28;20488;-75
2023/04/21 04:55:22;;;;;;;16.13;13.13;;;8.50;70.30;;;;;;5057320;28;20458;-73
2023/04/21 04:57:48;;;;;;;15.17;12.63;;;8.50;70.50;;;;;;5056947;28;20486;-73
2023/04/21 05:00:16;;;;;;;14.80;12.27;;;8.50;70.70;;;;;;5056721;28;20472;-75
2023/04/21 05:02:42;;;;;;;16.27;12.70;;;8.50;70.80;;;;;;5055385;28;20515;-74
2023/04/21 05:05:09;;;;;;;15.73;13.20;;;8.50;70.80;;;;;;5057180;28;20429;-76
2023/04/21 05:07:37;;;;;;;16.07;12.93;;;8.50;70.80;;;;;;5056750;28;20924;-75
2023/04/21 05:10:05;;;;;;;16.50;13.10;;;8.50;70.90;;;;;;5038202;28;21011;-75
2023/04/21 05:12:32;;;;;;;16.50;13.03;;;8.50;71.00;;;;;;5056409;28;20462;-74
2023/04/21 05:14:59;;;;;;;16.97;13.53;;;8.50;70.90;;;;;;5056811;28;20578;-75
2023/04/21 05:17:27;;;;;;;17.57;13.80;;;8.50;71.00;;;;;;5056794;28;20717;-76
2023/04/21 05:19:54;;;;;;;18.17;14.43;;;8.60;71.20;;;;;;5057130;28;20571;-75
2023/04/21 05:22:21;;;;;;;16.80;14.63;;;8.60;71.10;;;;;;5056502;28;20637;-76
2023/04/21 05:24:49;;;;;;;19.10;15.00;;;8.60;71.20;;;;;;5056669;28;20464;-76
2023/04/21 05:27:16;;;;;;;17.60;14.17;;;8.60;71.20;;;;;;5055411;28;20543;-73
2023/04/21 05:29:43;;;;;;;17.00;13.17;;;8.60;71.10;;;;;;5056490;28;20454;-75
2023/04/21 05:32:11;;;;;;;15.17;13.53;;;8.60;71.30;;;;;;5056585;28;20539;-76
2023/04/21 05:34:38;;;;;;;16.90;13.97;;;8.70;71.30;;;;;;5073825;28;20487;-75
2023/04/21 05:37:04;;;;;;;16.20;13.87;;;8.70;71.40;;;;;;5076372;28;20451;-75
2023/04/21 05:39:31;;;;;;;15.07;13.10;;;8.70;71.60;;;;;;5075265;28;20455;-75
2023/04/21 05:42:01;;;;;;;16.87;13.30;;;8.70;71.70;;;;;;5076043;28;20475;-76
2023/04/21 05:44:28;;;;;;;14.87;12.60;;;8.80;72.00;;;;;;5075559;28;20443;-76
2023/04/21 05:46:54;;;;;;;14.13;12.37;;;8.80;72.30;;;;;;5075993;28;20930;-75
2023/04/21 05:49:25;;;;;;;13.67;12.10;;;8.80;72.30;;;;;;5057500;28;20464;-76
2023/04/21 05:51:55;;;;;;;13.43;11.57;;;8.90;72.90;;;;;;5055900;28;20936;-74
2023/04/21 05:54:22;;;;;;;14.60;11.93;;;8.90;73.10;;;;;;5055648;28;20506;-75
2023/04/21 05:56:49;;;;;;;15.63;12.93;;;9.00;73.40;;;;;;5055735;28;20448;-75
2023/04/21 05:59:17;;;;;;;14.93;13.40;;;9.10;73.90;;;;;;5055772;28;21239;-76
2023/04/21 06:01:44;;;;;;;15.63;12.57;;;9.10;74.00;;;;;;5056020;28;20531;-76
2023/04/21 06:04:14;;;;;;;13.70;11.73;;;9.10;73.80;;;;;;5055756;28;20486;-74
2023/04/21 06:06:44;;;;;;;14.93;12.83;;;9.20;73.90;;;;;;5054564;28;20444;-74
2023/04/21 06:09:14;;;;;;;16.30;13.73;;;9.20;74.20;;;;;;5020684;28;20479;-75
2023/04/21 06:11:44;;;;;;;14.60;12.70;;;9.30;74.50;;;;;;5055350;28;20452;-75
2023/04/21 06:14:13;;;;;;;16.23;13.27;;;9.30;74.80;;;;;;5055174;28;20586;-75
2023/04/21 06:16:41;;;;;;;16.90;13.77;;;9.40;75.00;;;;;;5055670;28;20436;-74
2023/04/21 06:19:11;;;;;;;15.70;13.47;;;9.40;75.00;;;;;;5074818;28;20461;-75
2023/04/21 06:21:41;;;;;;;15.53;13.67;;;9.50;74.90;;;;;;5075442;28;20457;-75
2023/04/21 06:24:08;;;;;;;15.07;13.27;;;9.60;75.10;;;;;;5075280;28;20538;-75
2023/04/21 06:26:35;;;;;;;15.70;13.93;;;9.60;75.30;;;;;;5074950;28;20475;-75
2023/04/21 06:29:02;;;;;;;14.53;12.80;;;9.70;75.20;;;;;;5075146;28;20478;-74
2023/04/21 06:31:29;;;;;;;16.00;14.30;;;9.70;75.30;;;;;;5075136;28;20478;-76
2023/04/21 06:33:59;;;;;;;16.10;13.77;;;9.80;75.30;;;;;;5055791;28;20498;-75
2023/04/21 06:36:26;;;;;;;15.60;13.83;;;9.80;75.50;;;;;;5053243;28;20575;-75
2023/04/21 06:38:53;;;;;;;15.10;12.90;;;9.90;75.60;;;;;;5054002;28;20474;-73
2023/04/21 06:41:20;;;;;;;14.63;13.03;;;9.90;75.50;;;;;;5053936;28;20826;-76
2023/04/21 06:43:46;;;;;;;13.43;12.03;;;10.00;74.40;;;;;;5054520;28;20824;-76
2023/04/21 06:46:13;;;;;;;13.10;11.70;;;10.00;74.60;;;;;;5036244;28;20463;-76
2023/04/21 06:48:40;;;;;;;11.47;10.37;;;10.10;75.00;;;;;;5055273;28;20870;-75
2023/04/21 06:51:08;;;;;;;11.27;9.93;;;10.30;75.20;;;;;;5055021;28;20535;-72
2023/04/21 06:53:36;;;;;;;12.50;10.50;;;10.30;75.20;;;;;;5054801;28;20646;-74
2023/04/21 06:56:04;;;;;;;10.97;9.23;;;10.50;75.60;;;;;;5054561;28;20448;-75
2023/04/21 06:58:30;;;;;;;10.03;9.03;;;10.60;75.90;;;;;;5054460;28;20484;-74
2023/04/21 07:01:00;;;;;;;10.90;9.57;;;10.70;75.90;;;;;;5035809;28;20864;-74
2023/04/21 07:03:27;;;;;;;11.87;9.80;;;10.90;75.80;;;;;;5054703;28;20522;-74
2023/04/21 07:05:57;;;;;;;9.93;8.93;;;11.00;76.00;;;;;;5054211;28;20449;-74
2023/04/21 07:08:26;;;;;;;10.57;9.03;;;11.10;76.10;;;;;;5054182;28;20448;-75
2023/04/21 07:10:53;;;;;;;11.00;9.40;;;11.20;75.70;;;;;;5054175;28;20548;-75
2023/04/21 07:13:22;;;;;;;10.23;8.97;;;11.30;75.70;;;;;;5054649;28;20456;-76
2023/04/21 07:15:51;;;;;;;10.03;8.93;;;11.50;75.80;;;;;;5054468;28;20494;-74
2023/04/21 07:18:22;;;;;;;9.20;8.20;;;11.60;75.40;;;;;;5054730;28;20502;-74
2023/04/21 07:20:51;;;;;;;9.80;8.60;;;11.70;75.10;;;;;;5054649;28;20451;-73
2023/04/21 07:23:18;;;;;;;9.73;8.47;;;11.90;75.10;;;;;;5052187;28;20448;-76
2023/04/21 07:25:48;;;;;;;9.43;8.43;;;12.00;75.00;;;;;;5054166;28;21070;-75
2023/04/21 07:28:17;;;;;;;10.33;8.93;;;12.10;74.80;;;;;;5052283;28;20444;-75
2023/04/21 07:30:47;;;;;;;11.53;9.07;;;12.20;75.00;;;;;;5056680;28;20549;-75
2023/04/21 07:33:17;;;;;;;9.30;8.40;;;12.40;74.80;;;;;;5074158;28;20541;-75
2023/04/21 07:35:48;;;;;;;10.13;8.73;;;12.50;74.60;;;;;;5072443;28;20501;-75
2023/04/21 07:38:15;;;;;;;9.50;8.50;;;12.60;73.80;;;;;;5073812;28;20547;-75
2023/04/21 07:40:44;;;;;;;11.00;9.87;;;12.70;73.30;;;;;;5074153;28;20450;-75
2023/04/21 07:43:13;;;;;;;10.43;9.33;;;12.90;73.90;;;;;;5073845;28;20864;-74
2023/04/21 07:45:42;;;;;;;9.83;8.50;;;13.00;73.50;;;;;;5070052;28;20484;-75
2023/04/21 07:48:12;;;;;;;10.60;9.50;;;13.10;73.00;;;;;;5053815;28;20524;-75
2023/04/21 07:50:41;;;;;;;9.90;8.90;;;13.20;72.00;;;;;;5053690;28;20455;-75
2023/04/21 07:53:08;;;;;;;10.00;9.00;;;13.30;72.00;;;;;;5053620;28;20484;-76
2023/04/21 07:55:36;;;;;;;10.17;9.07;;;13.50;72.80;;;;;;5053363;28;20491;-76
2023/04/21 07:58:03;;;;;;;9.47;8.27;;;13.50;72.20;;;;;;5059060;28;20489;-75
2023/04/21 08:00:31;;;;;;;8.67;7.77;;;13.60;70.60;;;;;;5051803;28;20454;-75
2023/04/21 08:03:00;;;;;;;8.63;7.60;;;13.70;69.90;;;;;;5064329;28;20507;-75
2023/04/21 08:05:28;;;;;;;8.63;7.77;;;13.80;69.90;;;;;;5072215;28;20452;-75
2023/04/21 08:07:56;;;;;;;7.67;6.93;;;13.80;69.10;;;;;;5072431;28;20458;-73
2023/04/21 08:10:23;;;;;;;8.10;7.17;;;13.90;69.20;;;;;;5073480;28;20979;-75
2023/04/21 08:12:50;;;;;;;8.23;6.83;;;14.00;69.10;;;;;;5073118;28;20502;-75
2023/04/21 08:15:17;;;;;;;8.57;7.10;;;14.10;68.80;;;;;;5073116;28;20491;-75
2023/04/21 08:17:46;;;;;;;6.80;6.10;;;14.20;69.10;;;;;;5073240;28;20452;-76
2023/04/21 08:20:13;;;;;;;7.23;6.27;;;14.30;68.50;;;;;;5073138;28;20506;-76
2023/04/21 08:22:40;;;;;;;6.10;5.50;;;14.40;68.40;;;;;;5073223;28;20483;-74
2023/04/21 08:25:07;;;;;;;6.60;6.00;;;14.50;67.50;;;;;;5072837;28;20854;-76
2023/04/21 08:27:37;;;;;;;7.03;6.00;;;14.70;67.60;;;;;;5072982;28;20443;-76
2023/04/21 08:30:05;;;;;;;6.93;6.23;;;14.70;66.70;;;;;;5072775;28;20557;-76
2023/04/21 08:32:31;;;;;;;7.20;6.37;;;14.80;67.20;;;;;;5052915;28;20466;-76
2023/04/21 08:35:00;;;;;;;7.83;6.40;;;14.90;67.00;;;;;;5057631;28;20571;-73
2023/04/21 08:37:28;;;;;;;6.57;5.70;;;15.00;66.10;;;;;;5073151;28;20454;-75
2023/04/21 08:39:54;;;;;;;5.60;4.67;;;15.00;65.80;;;;;;5073198;28;20501;-76
2023/04/21 08:42:21;;;;;;;4.83;4.43;;;15.10;65.40;;;;;;5072952;28;20571;-75
2023/04/21 08:44:48;;;;;;;6.00;4.90;;;15.10;63.90;;;;;;5072673;28;20497;-76
2023/04/21 08:47:16;;;;;;;5.33;4.83;;;15.20;64.90;;;;;;5072547;28;20562;-77
2023/04/21 08:49:44;;;;;;;5.63;5.13;;;15.30;64.70;;;;;;5072468;28;20470;-76
2023/04/21 08:52:16;;;;;;;5.57;5.03;;;15.40;64.50;;;;;;5073001;28;20472;-75
2023/04/21 08:54:43;;;;;;;5.83;5.23;;;15.50;65.20;;;;;;5072564;28;20558;-74
2023/04/21 08:57:16;;;;;;;9.07;6.43;;;15.70;64.60;;;;;;5072810;28;20850;-75
2023/04/21 08:59:48;;;;;;;6.77;6.03;;;15.80;64.80;;;;;;5073137;28;20471;-76
2023/04/21 09:02:19;;;;;;;7.53;6.73;;;15.90;64.30;;;;;;5071450;28;20451;-74
2023/04/21 09:04:50;;;;;;;6.97;6.27;;;16.00;63.60;;;;;;5071601;28;20527;-75
2023/04/21 09:07:41;;;;;;;6.67;6.00;;;16.10;64.30;;;;;;5072893;28;20431;-76
2023/04/21 09:10:09;;;;;;;7.83;6.20;;;16.30;64.50;;;;;;5071582;28;20478;-74
2023/04/21 09:12:41;;;;;;;6.10;5.40;;;16.40;63.60;;;;;;5072692;28;20478;-72
2023/04/21 09:15:13;;;;;;;5.77;5.27;;;16.40;64.70;;;;;;5072390;28;20492;-73
2023/04/21 09:17:44;;;;;;;5.77;5.17;;;16.60;63.80;;;;;;5072650;28;20479;-74
2023/04/21 09:20:16;;;;;;;6.67;5.90;;;16.70;63.90;;;;;;5062134;28;21003;-75
2023/04/21 09:22:49;;;;;;;7.77;5.43;;;16.90;63.60;;;;;;5056223;28;20517;-75
2023/04/21 09:25:18;;;;;;;6.17;5.10;;;17.00;63.40;;;;;;5055574;28;20537;-75
2023/04/21 09:27:47;;;;;;;6.20;5.60;;;17.10;64.20;;;;;;5056173;28;20444;-75
2023/04/21 09:30:18;;;;;;;6.63;5.97;;;17.30;63.60;;;;;;5055906;28;20471;-74
2023/04/21 09:32:49;;;;;;;6.80;5.43;;;17.40;63.60;;;;;;5073896;28;20443;-75
2023/04/21 09:35:21;;;;;;;5.80;5.10;;;17.50;62.70;;;;;;5073940;28;20841;-75
2023/04/21 09:37:52;;;;;;;5.47;4.77;;;17.70;62.50;;;;;;5075926;28;20511;-75
2023/04/21 09:40:22;;;;;;;5.50;5.00;;;17.80;61.60;;;;;;5075693;28;20447;-74
2023/04/21 09:42:49;;;;;;;5.67;4.90;;;17.80;60.80;;;;;;5075758;28;20912;-75
2023/04/21 09:45:16;;;;;;;5.40;4.90;;;17.80;59.80;;;;;;5075521;28;20443;-75
2023/04/21 09:47:43;;;;;;;4.80;4.03;;;17.90;59.90;;;;;;5075399;28;20473;-75
2023/04/21 09:50:12;;;;;;;4.43;3.90;;;18.00;60.40;;;;;;5075674;28;20471;-75
2023/04/21 09:52:43;;;;;;;4.53;4.13;;;18.00;60.40;;;;;;5075545;28;20451;-75
2023/04/21 09:55:13;;;;;;;4.20;3.80;;;18.20;62.00;;;;;;5075662;28;20493;-75
2023/04/21 09:57:47;;;;;;;4.27;3.87;;;18.30;61.10;;;;;;5075423;28;20465;-75
2023/04/21 10:00:16;;;;;;;5.33;4.27;;;18.40;60.40;;;;;;5074257;28;20256;-75
2023/04/21 10:02:47;;;;;;;5.20;3.73;;;18.60;59.00;;;;;;5054977;28;20543;-75
2023/04/21 10:05:17;;;;;;;4.73;3.17;;;18.70;59.60;;;;;;5055373;28;20321;-76
2023/04/21 10:07:47;;;;;;;4.07;3.23;;;18.80;59.50;;;;;;5068460;28;20201;-75
2023/04/21 10:10:20;;;;;;;3.40;3.03;;;18.90;58.10;;;;;;5075206;28;20716;-75
2023/04/21 10:12:51;;;;;;;3.20;2.90;;;18.90;57.60;;;;;;5075391;28;20494;-74
2023/04/21 10:15:34;;;;;;;3.40;3.07;;;19.00;58.60;;;;;;5075021;28;20225;-77
2023/04/21 10:18:18;;;;;;;3.43;2.97;;;19.00;56.70;;;;;;5075638;28;20216;-75
2023/04/21 10:20:56;;;;;;;3.40;3.10;;;19.10;56.80;;;;;;5075346;28;20229;-74
2023/04/21 10:23:30;;;;;;;4.17;3.10;;;19.20;56.90;;;;;;5074093;28;20205;-75
2023/04/21 10:26:08;;;;;;;3.50;3.20;;;19.20;56.90;;;;;;5074387;28;20236;-76
2023/04/21 10:28:47;;;;;;;3.20;2.90;;;19.30;56.90;;;;;;5074277;28;20227;-76
2023/04/21 10:31:18;;;;;;;3.20;2.90;;;19.30;56.40;;;;;;5054482;28;20236;-75
2023/04/21 10:34:16;;;;;;;3.20;2.90;;;19.40;56.40;;;;;;5054553;28;20217;-75
2023/04/21 10:37:02;;;;;;;4.03;3.13;;;19.40;56.50;;;;;;5055722;28;20785;-75
2023/04/21 10:39:35;;;;;;;3.43;3.10;;;19.60;57.10;;;;;;5055330;28;20216;-75
2023/04/21 10:42:27;;;;;;;3.57;3.23;;;19.60;56.50;;;;;;5054664;28;20307;-75
2023/04/21 10:45:15;;;;;;;3.40;3.10;;;19.70;55.90;;;;;;5054960;28;20288;-76
2023/04/21 10:47:47;;;;;;;3.80;3.40;;;19.80;56.00;;;;;;5054661;28;20299;-76
2023/04/21 10:50:35;;;;;;;3.10;2.80;;;19.80;56.20;;;;;;5058446;28;20205;-75
2023/04/21 10:53:12;;;;;;;3.20;2.90;;;19.90;56.10;;;;;;5055593;28;20285;-74
2023/04/21 10:55:41;;;;;;;4.07;3.40;;;20.00;56.50;;;;;;5057141;28;20328;-75
2023/04/21 10:58:09;;;;;;;4.00;3.60;;;20.00;56.70;;;;;;5056721;28;20225;-75
2023/04/21 11:00:38;;;;;;;4.20;3.80;;;20.10;56.90;;;;;;5054549;28;20300;-74
2023/04/21 11:03:09;;;;;;;4.53;4.13;;;20.30;56.50;;;;;;5054572;28;20210;-74
2023/04/21 11:05:40;;;;;;;4.77;4.27;;;20.40;56.90;;;;;;5061878;28;20304;-74
2023/04/21 11:08:16;;;;;;;5.33;4.83;;;20.50;57.90;;;;;;5075076;28;20243;-75
2023/04/21 11:10:52;;;;;;;5.00;4.50;;;20.60;56.80;;;;;;5074532;28;20743;-75
2023/04/21 11:13:23;;;;;;;5.20;4.70;;;20.70;56.30;;;;;;5074306;28;20211;-74
2023/04/21 11:15:57;;;;;;;5.20;4.70;;;20.80;56.50;;;;;;5073612;28;20243;-74
2023/04/21 11:18:33;;;;;;;4.70;4.30;;;20.80;56.30;;;;;;5074258;28;20295;-75
2023/04/21 11:21:07;;;;;;;5.73;5.13;;;20.90;56.90;;;;;;5072300;28;20784;-75
2023/04/21 11:23:40;;;;;;;5.00;4.57;;;21.00;56.80;;;;;;5057088;28;20211;-76
2023/04/21 11:26:11;;;;;;;4.93;4.50;;;21.00;56.00;;;;;;5072902;28;20193;-75
2023/04/21 11:28:40;;;;;;;4.93;4.53;;;21.10;56.00;;;;;;5073729;28;20300;-76
2023/04/21 11:31:07;;;;;;;4.87;4.47;;;21.20;56.50;;;;;;5074013;28;20581;-73
2023/04/21 11:33:36;;;;;;;5.30;4.80;;;21.20;56.90;;;;;;5073541;28;20209;-73
2023/04/21 11:36:05;;;;;;;4.57;4.17;;;21.30;56.00;;;;;;5073099;28;20232;-75
2023/04/21 11:38:37;;;;;;;4.37;3.97;;;21.40;56.60;;;;;;5073205;28;20260;-76
2023/04/21 11:41:05;;;;;;;4.63;4.23;;;21.50;55.10;;;;;;5054730;28;20600;-73
2023/04/21 11:43:35;;;;;;;4.93;4.23;;;21.60;54.40;;;;;;5052873;28;20269;-75
2023/04/21 11:46:16;;;;;;;5.30;4.80;;;21.70;55.30;;;;;;5052953;28;20244;-76
2023/04/21 11:48:46;;;;;;;4.83;4.43;;;21.70;54.20;;;;;;5053167;28;20271;-74
2023/04/21 11:51:17;;;;;;;5.10;4.60;;;21.80;54.60;;;;;;5053060;28;20229;-75
2023/04/21 11:53:46;;;;;;;4.33;3.93;;;21.80;54.80;;;;;;5053447;28;20367;-74
2023/04/21 11:56:20;;;;;;;5.63;5.13;;;22.00;55.60;;;;;;5052955;28;20224;-74
2023/04/21 11:58:51;;;;;;;5.27;4.63;;;22.10;54.60;;;;;;5052869;28;20230;-75
2023/04/21 12:01:21;;;;;;;4.67;4.27;;;22.10;55.00;;;;;;5053027;28;20208;-76
2023/04/21 12:03:52;;;;;;;5.33;4.73;;;22.20;55.40;;;;;;5053448;28;20211;-75
2023/04/21 12:06:28;;;;;;;5.70;5.20;;;22.30;54.50;;;;;;5052813;28;20596;-74
2023/04/21 12:09:03;;;;;;;5.00;4.50;;;22.40;54.20;;;;;;5053991;28;20216;-74
2023/04/21 12:11:33;;;;;;;5.37;4.87;;;22.50;54.30;;;;;;5055227;28;20212;-75
2023/04/21 12:14:01;;;;;;;5.30;4.80;;;22.60;55.00;;;;;;5054614;28;20214;-75
2023/04/21 12:16:36;;;;;;;5.90;5.40;;;22.70;54.50;;;;;;5054222;28;20237;-75
2023/04/21 12:19:03;;;;;;;5.53;5.03;;;22.70;53.90;;;;;;5308427;23;20209;-65
2023/04/21 12:21:30;;;;;;;4.70;4.30;;;22.70;53.60;;;;;;5046429;28;20609;-65
2023/04/21 12:23:57;;;;;;;4.97;4.57;;;22.80;54.60;;;;;;5051497;28;20729;-65
2023/04/21 12:26:24;;;;;;;5.80;5.30;;;22.90;54.50;;;;;;5051998;28;20236;-64
2023/04/21 12:28:51;;;;;;;6.83;5.63;;;23.00;53.80;;;;;;5052129;28;20212;-65
2023/04/21 12:31:18;;;;;;;5.57;5.07;;;23.00;53.60;;;;;;5052693;28;20209;-65
2023/04/21 12:33:47;;;;;;;6.40;5.80;;;23.10;53.70;;;;;;5052417;28;20297;-65
2023/04/21 12:36:14;;;;;;;5.77;5.27;;;23.10;53.30;;;;;;5051754;28;20750;-65
2023/04/21 12:38:41;;;;;;;7.57;5.90;;;23.10;53.50;;;;;;5052263;28;20230;-65
2023/04/21 12:41:08;;;;;;;6.60;6.00;;;23.20;53.30;;;;;;5052154;28;20680;-65
2023/04/21 12:43:35;;;;;;;6.03;5.50;;;23.30;53.20;;;;;;5051870;28;20229;-65
2023/04/21 12:46:02;;;;;;;7.30;6.53;;;23.40;53.80;;;;;;5051992;28;20550;-64
2023/04/21 12:48:29;;;;;;;6.33;5.73;;;23.40;52.80;;;;;;5051976;28;20233;-65
2023/04/21 12:50:57;;;;;;;6.73;6.13;;;23.50;52.90;;;;;;5047542;28;20226;-65